Time;durP1;ratioP1;P1;durP2;ratioP2;P2;SDS_P1;SDS_P2;PMS_P1;PMS_P2;Temp;Humidity;BMP_temperature;BMP_pressure;BME280_temperature;BME280_humidity;BME280_pressure;Samples;Min_cycle;Max_cycle;Signal;HPM_P1;HPM_P2
2022/11/08 00:01:55;;;;;;;;;;;;;;;;;;5088776;28;19991;-56
2022/11/08 00:04:22;;;;;;;;;;;;;;;;;;5087528;28;19986;-58
2022/11/08 00:15:01;;;;;;;;;;;;;;;;;;5088483;28;19934;-58
2022/11/08 00:17:30;;;;;;;;;;;;;;;;;;5088743;28;20014;-57
2022/11/08 00:19:57;;;;;;;;;;;;;;;;;;5088346;28;20204;-57
2022/11/08 00:22:24;;;;;;;;;;;;;;;;;;5088547;28;19955;-58
2022/11/08 00:24:51;;;;;;;;;;;;;;;;;;5089008;28;19928;-55
2022/11/08 00:27:18;;;;;;;;;;;;;;;;;;5088741;28;20326;-59
2022/11/08 00:29:45;;;;;;;;;;;;;;;;;;5088551;28;19928;-59
2022/11/08 00:32:12;;;;;;;;;;;;;;;;;;5088599;28;19985;-59
2022/11/08 00:34:40;;;;;;;;;;;;;;;;;;5088705;28;19924;-53
2022/11/08 00:37:07;;;;;;;;;;;;;;;;;;5088756;28;19977;-55
2022/11/08 00:39:33;;;;;;;;;;;;;;;;;;5091801;28;20296;-59
2022/11/08 00:42:00;;;;;;;;;;;;;;;;;;5092169;28;19932;-56
2022/11/08 00:44:27;;;;;;;;;;;;;;;;;;5092819;28;20171;-58
2022/11/08 00:46:53;;;;;;;;;;;;;;;;;;5092546;28;20274;-58
2022/11/08 00:49:20;;;;;;;;;;;;;;;;;;5092044;28;19932;-59
2022/11/08 00:51:48;;;;;;;;;;;;;;;;;;5092691;28;20423;-58
2022/11/08 00:54:15;;;;;;;;;;;;;;;;;;5092542;28;19931;-59
2022/11/08 00:56:42;;;;;;;;;;;;;;;;;;5092467;28;20378;-59
2022/11/08 00:59:10;;;;;;;;;;;;;;;;;;5092520;28;20097;-59
2022/11/08 01:01:37;;;;;;;;;;;;;;;;;;5092092;28;19924;-59
2022/11/08 01:04:04;;;;;;;;;;;;;;;;;;5092405;28;19924;-59
2022/11/08 01:06:31;;;;;;;;;;;;;;;;;;5092294;28;19931;-59
2022/11/08 01:08:59;;;;;;;;;;;;;;;;;;5091856;28;19928;-56
2022/11/08 01:11:26;;;;;;;;;;;;;;;;;;5091166;28;19943;-59
2022/11/08 01:13:53;;;;;;;;;;;;;;;;;;5092043;28;19928;-58
2022/11/08 01:16:20;;;;;;;;;;;;;;;;;;5091573;28;19935;-58
2022/11/08 01:18:47;;;;;;;;;;;;;;;;;;5092309;28;19933;-56
2022/11/08 01:21:14;;;;;;;;;;;;;;;;;;5091521;28;19985;-56
2022/11/08 01:23:42;;;;;;;;;;;;;;;;;;5090970;28;19932;-59
2022/11/08 01:26:11;;;;;;;;;;;;;;;;;;5091552;28;19955;-58
2022/11/08 01:28:38;;;;;;;;;;;;;;;;;;5091587;28;19924;-59
2022/11/08 01:31:05;;;;;;;;;;;;;;;;;;5092076;28;20277;-59
2022/11/08 01:33:32;;;;;;;;;;;;;;;;;;5091973;28;19969;-53
2022/11/08 01:35:58;;;;;;;;;;;;;;;;;;5091584;28;20009;-60
2022/11/08 01:38:25;;;;;;;;;;;;;;;;;;5091938;28;20292;-59
2022/11/08 01:40:51;;;;;;;;;;;;;;;;;;5092317;28;20281;-60
2022/11/08 01:43:37;;;;;;;;;;;;;;;;;;5092053;28;20273;-59
2022/11/08 01:46:37;;;;;;;;;;;;;;;;;;5091075;28;19988;-60
2022/11/08 01:49:24;;;;;;;;;;;;;;;;;;5090400;28;19931;-59
2022/11/08 01:51:53;;;;;;;;;;;;;;;;;;5085749;28;19932;-60
2022/11/08 01:54:23;;;;;;;;;;;;;;;;;;5090958;28;20389;-59
2022/11/08 01:56:49;;;;;;;;;;;;;;;;;;5090986;28;20369;-59
2022/11/08 01:59:18;;;;;;;;;;;;;;;;;;5091117;28;19993;-59
2022/11/08 02:01:44;;;;;;;;;;;;;;;;;;5090449;28;19978;-60
2022/11/08 02:04:13;;;;;;;;;;;;;;;;;;5090430;28;19977;-60
2022/11/08 02:06:40;;;;;;;;;;;;;;;;;;5090571;28;19928;-58
2022/11/08 02:09:08;;;;;;;;;;;;;;;;;;5090778;28;19978;-60
2022/11/08 02:11:34;;;;;;;;;;;;;;;;;;5090588;28;19974;-60
2022/11/08 02:14:01;;;;;;;;;;;;;;;;;;5090257;28;19928;-59
2022/11/08 02:16:29;;;;;;;;;;;;;;;;;;5091020;28;20317;-60
2022/11/08 02:18:56;;;;;;;;;;;;;;;;;;5090913;28;19924;-60
2022/11/08 02:21:24;;;;;;;;;;;;;;;;;;5090449;28;19989;-59
2022/11/08 02:23:54;;;;;;;;;;;;;;;;;;5090917;28;19931;-60
2022/11/08 02:26:22;;;;;;;;;;;;;;;;;;5090016;28;19932;-60
2022/11/08 02:28:49;;;;;;;;;;;;;;;;;;5091303;28;20258;-60
2022/11/08 02:31:16;;;;;;;;;;;;;;;;;;5090383;28;19927;-58
2022/11/08 02:33:43;;;;;;;;;;;;;;;;;;5090436;28;19932;-59
2022/11/08 02:36:12;;;;;;;;;;;;;;;;;;5090477;28;19932;-60
2022/11/08 02:38:40;;;;;;;;;;;;;;;;;;5090311;28;20368;-60
2022/11/08 02:41:08;;;;;;;;;;;;;;;;;;5089655;28;19924;-60
2022/11/08 02:43:34;;;;;;;;;;;;;;;;;;5090359;28;19924;-59
2022/11/08 02:46:01;;;;;;;;;;;;;;;;;;5090593;28;19936;-58
2022/11/08 02:48:28;;;;;;;;;;;;;;;;;;5090306;28;19932;-58
2022/11/08 02:50:54;;;;;;;;;;;;;;;;;;5090268;28;19961;-60
2022/11/08 02:53:21;;;;;;;;;;;;;;;;;;5089922;28;19924;-56
2022/11/08 02:55:47;;;;;;;;;;;;;;;;;;5090466;28;20378;-60
2022/11/08 02:58:15;;;;;;;;;;;;;;;;;;5090199;28;19936;-60
2022/11/08 03:00:42;;;;;;;;;;;;;;;;;;5089352;28;19924;-60
2022/11/08 03:03:09;;;;;;;;;;;;;;;;;;5089724;28;19928;-60
2022/11/08 03:05:35;;;;;;;;;;;;;;;;;;5089823;28;19938;-60
2022/11/08 03:08:02;;;;;;;;;;;;;;;;;;5089978;28;20102;-59
2022/11/08 03:10:29;;;;;;;;;;;;;;;;;;5089169;28;19977;-60
2022/11/08 03:12:55;;;;;;;;;;;;;;;;;;5089744;28;19949;-61
2022/11/08 03:15:23;;;;;;;;;;;;;;;;;;5089905;28;19986;-62
2022/11/08 03:17:50;;;;;;;;;;;;;;;;;;5089806;28;19951;-59
2022/11/08 03:20:17;;;;;;;;;;;;;;;;;;5088864;28;21160;-60
2022/11/08 03:22:43;;;;;;;;;;;;;;;;;;5090005;28;19924;-60
2022/11/08 03:25:10;;;;;;;;;;;;;;;;;;5089085;28;20062;-60
2022/11/08 03:27:37;;;;;;;;;;;;;;;;;;5089554;28;19993;-59
2022/11/08 03:30:03;;;;;;;;;;;;;;;;;;5090068;28;19928;-59
2022/11/08 03:32:32;;;;;;;;;;;;;;;;;;5089384;28;19946;-59
2022/11/08 03:34:59;;;;;;;;;;;;;;;;;;5089106;28;20586;-56
2022/11/08 03:37:26;;;;;;;;;;;;;;;;;;5088993;28;19939;-57
2022/11/08 03:39:52;;;;;;;;;;;;;;;;;;5088531;28;19932;-58
2022/11/08 03:42:19;;;;;;;;;;;;;;;;;;5088984;28;19924;-59
2022/11/08 03:44:45;;;;;;;;;;;;;;;;;;5088568;28;20400;-58
2022/11/08 03:47:12;;;;;;;;;;;;;;;;;;5089360;28;19932;-58
2022/11/08 03:49:40;;;;;;;;;;;;;;;;;;5089070;28;19924;-57
2022/11/08 03:52:07;;;;;;;;;;;;;;;;;;5088701;28;19924;-59
2022/11/08 03:54:33;;;;;;;;;;;;;;;;;;5088826;28;19928;-59
2022/11/08 03:57:00;;;;;;;;;;;;;;;;;;5088698;28;19924;-59
2022/11/08 03:59:26;;;;;;;;;;;;;;;;;;5088868;28;19936;-56
2022/11/08 04:01:53;;;;;;;;;;;;;;;;;;5088709;28;20289;-56
2022/11/08 04:04:19;;;;;;;;;;;;;;;;;;5088077;28;19932;-58
2022/11/08 04:06:47;;;;;;;;;;;;;;;;;;5088600;28;19932;-56
2022/11/08 04:09:14;;;;;;;;;;;;;;;;;;5088224;28;20377;-59
2022/11/08 04:17:08;;;;;;;;;;;;;;;;;;5089192;28;20403;-59
2022/11/08 04:22:20;;;;;;;;;;;;;;;;;;5088614;28;19970;-56
2022/11/08 04:24:46;;;;;;;;;;;;;;;;;;5088678;28;19932;-58
2022/11/08 04:27:13;;;;;;;;;;;;;;;;;;5088422;28;19931;-59
2022/11/08 04:29:40;;;;;;;;;;;;;;;;;;5088594;28;19985;-59
2022/11/08 04:32:06;;;;;;;;;;;;;;;;;;5088604;28;19924;-59
2022/11/08 04:34:33;;;;;;;;;;;;;;;;;;5089246;28;20297;-59
2022/11/08 04:36:59;;;;;;;;;;;;;;;;;;5088213;28;19932;-58
2022/11/08 04:39:27;;;;;;;;;;;;;;;;;;5088105;28;19935;-56
2022/11/08 04:41:54;;;;;;;;;;;;;;;;;;5088562;28;19924;-59
2022/11/08 04:44:20;;;;;;;;;;;;;;;;;;5088330;28;19977;-59
2022/11/08 04:46:47;;;;;;;;;;;;;;;;;;5087878;28;19939;-59
2022/11/08 04:49:13;;;;;;;;;;;;;;;;;;5088340;28;19977;-56
2022/11/08 04:51:40;;;;;;;;;;;;;;;;;;5088023;28;20190;-59
2022/11/08 04:54:07;;;;;;;;;;;;;;;;;;5088144;28;20010;-56
2022/11/08 04:56:35;;;;;;;;;;;;;;;;;;5088464;28;19924;-59
2022/11/08 04:59:02;;;;;;;;;;;;;;;;;;5088131;28;19982;-59
2022/11/08 05:01:29;;;;;;;;;;;;;;;;;;5087844;28;19936;-56
2022/11/08 05:03:56;;;;;;;;;;;;;;;;;;5088112;28;19974;-59
2022/11/08 05:06:24;;;;;;;;;;;;;;;;;;5087799;28;19955;-59
2022/11/08 05:08:50;;;;;;;;;;;;;;;;;;5088730;28;19977;-57
2022/11/08 05:11:18;;;;;;;;;;;;;;;;;;5088045;28;20316;-59
2022/11/08 05:13:46;;;;;;;;;;;;;;;;;;5087782;28;20014;-59
2022/11/08 05:16:14;;;;;;;;;;;;;;;;;;5087931;28;20381;-59
2022/11/08 05:18:40;;;;;;;;;;;;;;;;;;5087708;28;19925;-58
2022/11/08 05:23:52;;;;;;;;;;;;;;;;;;5088609;28;19931;-58
2022/11/08 05:26:19;;;;;;;;;;;;;;;;;;5091187;28;19977;-57
2022/11/08 05:28:48;;;;;;;;;;;;;;;;;;5092016;28;19929;-57
2022/11/08 05:31:14;;;;;;;;;;;;;;;;;;5091726;28;20000;-56
2022/11/08 05:33:41;;;;;;;;;;;;;;;;;;5091569;28;19932;-55
2022/11/08 05:36:09;;;;;;;;;;;;;;;;;;5092103;28;19924;-58
2022/11/08 05:38:35;;;;;;;;;;;;;;;;;;5091510;28;20335;-58
2022/11/08 05:41:03;;;;;;;;;;;;;;;;;;5091834;28;19967;-58
2022/11/08 05:43:30;;;;;;;;;;;;;;;;;;5091318;28;19932;-55
2022/11/08 05:45:58;;;;;;;;;;;;;;;;;;5091724;28;19928;-57
2022/11/08 05:48:24;;;;;;;;;;;;;;;;;;5091589;28;19980;-54
2022/11/08 05:50:51;;;;;;;;;;;;;;;;;;5091960;28;20327;-58
2022/11/08 05:53:18;;;;;;;;;;;;;;;;;;5091588;28;19927;-54
2022/11/08 05:55:44;;;;;;;;;;;;;;;;;;5090925;28;19924;-57
2022/11/08 05:58:11;;;;;;;;;;;;;;;;;;5091588;28;19932;-55
2022/11/08 06:00:38;;;;;;;;;;;;;;;;;;5091567;28;20292;-57
2022/11/08 06:03:06;;;;;;;;;;;;;;;;;;5090388;28;19932;-57
2022/11/08 06:05:33;;;;;;;;;;;;;;;;;;5091299;28;19936;-58
2022/11/08 06:07:59;;;;;;;;;;;;;;;;;;5091623;28;20211;-58
2022/11/08 06:10:26;;;;;;;;;;;;;;;;;;5091292;28;19928;-55
2022/11/08 06:12:53;;;;;;;;;;;;;;;;;;5090954;28;20061;-58
2022/11/08 06:15:19;;;;;;;;;;;;;;;;;;5091039;28;19932;-55
2022/11/08 06:17:46;;;;;;;;;;;;;;;;;;5091442;28;19928;-58
2022/11/08 06:20:14;;;;;;;;;;;;;;;;;;5090530;28;19928;-58
2022/11/08 06:22:42;;;;;;;;;;;;;;;;;;5090525;28;19933;-58
2022/11/08 06:25:09;;;;;;;;;;;;;;;;;;5092753;28;20315;-57
2022/11/08 06:27:35;;;;;;;;;;;;;;;;;;5090411;28;19928;-56
2022/11/08 06:30:02;;;;;;;;;;;;;;;;;;5090421;28;20473;-57
2022/11/08 06:32:28;;;;;;;;;;;;;;;;;;5090888;28;19936;-58
2022/11/08 06:34:55;;;;;;;;;;;;;;;;;;5090720;28;19932;-58
2022/11/08 06:37:23;;;;;;;;;;;;;;;;;;5089894;28;19927;-58
2022/11/08 06:39:49;;;;;;;;;;;;;;;;;;5090417;28;19924;-55
2022/11/08 06:42:16;;;;;;;;;;;;;;;;;;5090069;28;19928;-57
2022/11/08 06:44:42;;;;;;;;;;;;;;;;;;5090404;28;19943;-59
2022/11/08 06:47:09;;;;;;;;;;;;;;;;;;5091003;28;20005;-59
2022/11/08 06:49:36;;;;;;;;;;;;;;;;;;5090510;28;20430;-56
2022/11/08 06:52:03;;;;;;;;;;;;;;;;;;5090395;28;19970;-58
2022/11/08 06:54:31;;;;;;;;;;;;;;;;;;5090207;28;19925;-58
2022/11/08 06:56:59;;;;;;;;;;;;;;;;;;5089762;28;19924;-59
2022/11/08 06:59:25;;;;;;;;;;;;;;;;;;5090004;28;19932;-59
2022/11/08 07:01:52;;;;;;;;;;;;;;;;;;5090311;28;19932;-55
2022/11/08 07:04:18;;;;;;;;;;;;;;;;;;5089570;28;19924;-59
2022/11/08 07:06:45;;;;;;;;;;;;;;;;;;5089889;28;19993;-59
2022/11/08 07:09:12;;;;;;;;;;;;;;;;;;5089971;28;20015;-58
2022/11/08 07:11:40;;;;;;;;;;;;;;;;;;5089365;28;19932;-59
2022/11/08 07:14:06;;;;;;;;;;;;;;;;;;5090004;28;19985;-56
2022/11/08 07:16:33;;;;;;;;;;;;;;;;;;5089840;28;19924;-55
2022/11/08 07:18:59;;;;;;;;;;;;;;;;;;5089720;28;19931;-57
2022/11/08 07:21:26;;;;;;;;;;;;;;;;;;5089214;28;20385;-58
2022/11/08 07:23:53;;;;;;;;;;;;;;;;;;5089746;28;19932;-58
2022/11/08 07:26:19;;;;;;;;;;;;;;;;;;5089639;28;19931;-58
2022/11/08 07:28:47;;;;;;;;;;;;;;;;;;5089179;28;19932;-59
2022/11/08 07:31:14;;;;;;;;;;;;;;;;;;5088941;28;19932;-58
2022/11/08 07:33:40;;;;;;;;;;;;;;;;;;5089721;28;20266;-57
2022/11/08 07:36:07;;;;;;;;;;;;;;;;;;5089654;28;19993;-57
2022/11/08 07:38:34;;;;;;;;;;;;;;;;;;5087662;28;20634;-57
2022/11/08 07:41:01;;;;;;;;;;;;;;;;;;5089797;28;20361;-54
2022/11/08 07:43:28;;;;;;;;;;;;;;;;;;5089671;28;19932;-58
2022/11/08 07:45:57;;;;;;;;;;;;;;;;;;5089256;28;19924;-58
2022/11/08 07:48:23;;;;;;;;;;;;;;;;;;5087942;28;19977;-59
2022/11/08 07:50:50;;;;;;;;;;;;;;;;;;5072787;28;19924;-61
2022/11/08 07:53:17;;;;;;;;;;;;;;;;;;5070780;28;20488;-58
2022/11/08 07:55:45;;;;;;;;;;;;;;;;;;5084205;28;20484;-58
2022/11/08 07:58:11;;;;;;;;;;;;;;;;;;5070899;28;19929;-59
2022/11/08 08:00:39;;;;;;;;;;;;;;;;;;5079681;28;19924;-56
2022/11/08 08:03:08;;;;;;;;;;;;;;;;;;5086177;28;19924;-56
2022/11/08 08:05:35;;;;;;;;;;;;;;;;;;5080799;28;19924;-58
2022/11/08 08:08:02;;;;;;;;;;;;;;;;;;5090718;28;20576;-58
2022/11/08 08:10:29;;;;;;;;;;;;;;;;;;5091095;28;19924;-57
2022/11/08 08:12:56;;;;;;;;;;;;;;;;;;5090872;28;20431;-57
2022/11/08 08:15:23;;;;;;;;;;;;;;;;;;5090501;28;19928;-60
2022/11/08 08:17:50;;;;;;;;;;;;;;;;;;5090616;28;20300;-57
2022/11/08 08:20:19;;;;;;;;;;;;;;;;;;5090440;28;19997;-59
2022/11/08 08:22:45;;;;;;;;;;;;;;;;;;5090176;28;20015;-59
2022/11/08 08:25:12;;;;;;;;;;;;;;;;;;5090244;28;19924;-54
2022/11/08 08:27:39;;;;;;;;;;;;;;;;;;5090192;28;19970;-55
2022/11/08 08:32:49;;;;;;;;;;;;;;;;;;5048395;28;20011;-50
2022/11/08 08:35:16;;;;;;;;;;;;;;;;;;5050649;28;20320;-52
2022/11/08 08:37:44;;;;;;;;;;;;;;;;;;5050224;28;20293;-50
2022/11/08 08:40:11;;;;;;;;;;;;;;;;;;5050628;28;20369;-53
2022/11/08 08:42:37;;;;;;;;;;;;;;;;;;5049436;28;20011;-49
2022/11/08 08:45:04;;;;;;;;;;;;;;;;;;5050279;28;19929;-52
2022/11/08 08:47:31;;;;;;;;;;;;;;;;;;5050093;28;19975;-50
2022/11/08 08:49:57;;;;;;;;;;;;;;;;;;5050420;28;19930;-49
2022/11/08 08:52:24;;;;;;;;;;;;;;;;;;5050097;28;20318;-49
2022/11/08 08:54:52;;;;;;;;;;;;;;;;;;5050173;28;19969;-53
2022/11/08 08:57:18;;;;;;;;;;;;;;;;;;5049884;28;19925;-50
2022/11/08 08:59:45;;;;;;;;;;;;;;;;;;5050173;28;19931;-50
2022/11/08 09:02:11;;;;;;;;;;;;;;;;;;5052436;28;19983;-51
2022/11/08 09:04:39;;;;;;;;;;;;;;;;;;5038150;28;20344;-51
2022/11/08 09:07:05;;;;;;;;;;;;;;;;;;5034119;28;20402;-49
2022/11/08 09:09:33;;;;;;;;;;;;;;;;;;5033819;28;19929;-52
2022/11/08 09:12:01;;;;;;;;;;;;;;;;;;5042097;28;19924;-50
2022/11/08 09:14:28;;;;;;;;;;;;;;;;;;5053622;28;19978;-53
2022/11/08 09:16:54;;;;;;;;;;;;;;;;;;5053674;28;20289;-49
2022/11/08 09:19:21;;;;;;;;;;;;;;;;;;5053389;28;19924;-51
2022/11/08 09:21:47;;;;;;;;;;;;;;;;;;5053700;28;19929;-65
2022/11/08 09:24:14;;;;;;;;;;;;;;;;;;5053835;28;19936;-52
2022/11/08 09:26:41;;;;;;;;;;;;;;;;;;5052899;28;19932;-52
2022/11/08 09:29:09;;;;;;;;;;;;;;;;;;5054316;28;19971;-60
2022/11/08 09:31:35;;;;;;;;;;;;;;;;;;5055516;28;19958;-63
2022/11/08 09:34:02;;;;;;;;;;;;;;;;;;5054670;28;19928;-52
2022/11/08 09:36:28;;;;;;;;;;;;;;;;;;5054933;28;20553;-51
2022/11/08 09:38:55;;;;;;;;;;;;;;;;;;5053513;28;20421;-54
2022/11/08 09:41:39;;;;;;;;;;;;;;;;;;5052762;28;19978;-53
2022/11/08 09:44:17;;;;;;;;;;;;;;;;;;5045955;28;19994;-50
2022/11/08 09:46:45;;;;;;;;;;;;;;;;;;5053245;28;20419;-51
2022/11/08 09:49:15;;;;;;;;;;;;;;;;;;5053060;28;19925;-50
2022/11/08 09:51:41;;;;;;;;;;;;;;;;;;5052987;28;19925;-51
2022/11/08 09:54:12;;;;;;;;;;;;;;;;;;5052574;28;19975;-50
2022/11/08 09:56:39;;;;;;;;;;;;;;;;;;5053168;28;19971;-50
2022/11/08 09:59:12;;;;;;;;;;;;;;;;;;5052197;28;19928;-50
2022/11/08 10:01:41;;;;;;;;;;;;;;;;;;5052292;28;19929;-51
2022/11/08 10:04:12;;;;;;;;;;;;;;;;;;5051889;28;20299;-52
2022/11/08 10:06:47;;;;;;;;;;;;;;;;;;5052391;28;19979;-51
2022/11/08 10:09:21;;;;;;;;;;;;;;;;;;5052933;28;19924;-51
2022/11/08 10:11:55;;;;;;;;;;;;;;;;;;5051782;28;19932;-50
2022/11/08 10:14:31;;;;;;;;;;;;;;;;;;5053080;28;20386;-50
2022/11/08 10:17:11;;;;;;;;;;;;;;;;;;5052917;28;19925;-50
2022/11/08 10:19:52;;;;;;;;;;;;;;;;;;5053016;28;19931;-52
2022/11/08 10:22:24;;;;;;;;;;;;;;;;;;5052852;28;20374;-51
2022/11/08 10:24:54;;;;;;;;;;;;;;;;;;5052985;28;19925;-51
2022/11/08 10:27:24;;;;;;;;;;;;;;;;;;5051644;28;19951;-50
2022/11/08 10:29:53;;;;;;;;;;;;;;;;;;5052164;28;20301;-53
2022/11/08 10:32:22;;;;;;;;;;;;;;;;;;5052622;28;20374;-53
2022/11/08 10:34:52;;;;;;;;;;;;;;;;;;5052253;28;19931;-51
2022/11/08 10:37:19;;;;;;;;;;;;;;;;;;5052025;28;19931;-50
2022/11/08 10:39:50;;;;;;;;;;;;;;;;;;5052230;28;19928;-50
2022/11/08 10:42:20;;;;;;;;;;;;;;;;;;5052392;28;20377;-52
2022/11/08 10:44:47;;;;;;;;;;;;;;;;;;5052671;28;19931;-51
2022/11/08 10:47:18;;;;;;;;;;;;;;;;;;5052409;28;19994;-51
2022/11/08 10:49:46;;;;;;;;;;;;;;;;;;5052039;28;19924;-54
2022/11/08 10:52:16;;;;;;;;;;;;;;;;;;5051259;28;19925;-51
2022/11/08 10:54:44;;;;;;;;;;;;;;;;;;5051909;28;20016;-52
2022/11/08 10:57:12;;;;;;;;;;;;;;;;;;5050693;28;19932;-52
2022/11/08 10:59:39;;;;;;;;;;;;;;;;;;5051352;28;19928;-52
2022/11/08 11:02:17;;;;;;;;;;;;;;;;;;5050948;28;19933;-51
2022/11/08 11:04:44;;;;;;;;;;;;;;;;;;5051002;28;19973;-52
2022/11/08 11:07:25;;;;;;;;;;;;;;;;;;5051726;28;20428;-54
2022/11/08 11:09:51;;;;;;;;;;;;;;;;;;5045938;28;20371;-51
2022/11/08 11:12:18;;;;;;;;;;;;;;;;;;5031635;28;20424;-53
2022/11/08 11:14:45;;;;;;;;;;;;;;;;;;5031792;28;20378;-50
2022/11/08 11:17:15;;;;;;;;;;;;;;;;;;5035737;28;20023;-50
2022/11/08 11:19:43;;;;;;;;;;;;;;;;;;5050846;28;19979;-53
2022/11/08 11:22:11;;;;;;;;;;;;;;;;;;5051151;28;20413;-53
2022/11/08 11:24:46;;;;;;;;;;;;;;;;;;5051529;28;19979;-54
2022/11/08 11:27:18;;;;;;;;;;;;;;;;;;5051288;28;20529;-50
2022/11/08 11:29:45;;;;;;;;;;;;;;;;;;5051536;28;19925;-51
2022/11/08 11:32:23;;;;;;;;;;;;;;;;;;5051110;28;19933;-51
2022/11/08 11:34:51;;;;;;;;;;;;;;;;;;5051431;28;20340;-53
2022/11/08 11:37:20;;;;;;;;;;;;;;;;;;5048926;28;19925;-51
2022/11/08 11:39:51;;;;;;;;;;;;;;;;;;5031088;28;19933;-50
2022/11/08 11:42:21;;;;;;;;;;;;;;;;;;5030765;28;19925;-50
2022/11/08 11:44:58;;;;;;;;;;;;;;;;;;5031110;28;19925;-52
2022/11/08 11:47:28;;;;;;;;;;;;;;;;;;5031164;28;20456;-52
2022/11/08 11:49:58;;;;;;;;;;;;;;;;;;5030870;28;20364;-51
2022/11/08 11:52:24;;;;;;;;;;;;;;;;;;5030776;28;20310;-51
2022/11/08 11:54:52;;;;;;;;;;;;;;;;;;5032490;28;19932;-51
2022/11/08 11:57:22;;;;;;;;;;;;;;;;;;5050609;28;19928;-51
2022/11/08 11:59:54;;;;;;;;;;;;;;;;;;5050608;28;19928;-51
2022/11/08 12:02:51;;;;;;;;;;;;;;;;;;5050542;28;19924;-54
2022/11/08 12:05:24;;;;;;;;;;;;;;;;;;5030791;28;19936;-52
2022/11/08 12:07:57;;;;;;;;;;;;;;;;;;5031341;28;19925;-52
2022/11/08 12:10:29;;;;;;;;;;;;;;;;;;5031391;28;20286;-54
2022/11/08 12:13:02;;;;;;;;;;;;;;;;;;5030652;28;20326;-53
2022/11/08 12:15:34;;;;;;;;;;;;;;;;;;5046093;28;20061;-53
2022/11/08 12:18:31;;;;;;;;;;;;;;;;;;5047993;28;19936;-53
2022/11/08 12:21:05;;;;;;;;;;;;;;;;;;5023461;28;19925;-50
2022/11/08 12:23:42;;;;;;;;;;;;;;;;;;5027967;28;20019;-53
2022/11/08 12:26:14;;;;;;;;;;;;;;;;;;5027791;28;20345;-52
2022/11/08 12:28:49;;;;;;;;;;;;;;;;;;5033469;28;19925;-50
2022/11/08 12:31:21;;;;;;;;;;;;;;;;;;5050617;28;19974;-50
2022/11/08 12:33:52;;;;;;;;;;;;;;;;;;5049497;28;19951;-50
2022/11/08 12:36:22;;;;;;;;;;;;;;;;;;5050755;28;20004;-50
2022/11/08 12:38:56;;;;;;;;;;;;;;;;;;5042955;28;19978;-56
2022/11/08 12:41:33;;;;;;;;;;;;;;;;;;5050915;28;19957;-51
2022/11/08 12:44:22;;;;;;;;;;;;;;;;;;5050615;28;20401;-53
2022/11/08 12:47:00;;;;;;;;;;;;;;;;;;5050201;28;19925;-51
2022/11/08 12:49:33;;;;;;;;;;;;;;;;;;5050346;28;19933;-50
2022/11/08 12:52:05;;;;;;;;;;;;;;;;;;5050626;28;20336;-50
2022/11/08 12:54:33;;;;;;;;;;;;;;;;;;5050320;28;19959;-50
2022/11/08 12:57:02;;;;;;;;;;;;;;;;;;5050169;28;19925;-50
2022/11/08 12:59:32;;;;;;;;;;;;;;;;;;5050059;28;19928;-52
2022/11/08 13:02:00;;;;;;;;;;;;;;;;;;5050647;28;20459;-53
2022/11/08 13:04:38;;;;;;;;;;;;;;;;;;5035913;28;19969;-50
2022/11/08 13:07:08;;;;;;;;;;;;;;;;;;5030925;28;19931;-51
2022/11/08 13:09:38;;;;;;;;;;;;;;;;;;5030948;28;20056;-50
2022/11/08 13:12:13;;;;;;;;;;;;;;;;;;5030568;28;19972;-51
2022/11/08 13:14:39;;;;;;;;;;;;;;;;;;5030565;28;19925;-53
2022/11/08 13:17:13;;;;;;;;;;;;;;;;;;5030371;28;20310;-52
2022/11/08 13:19:53;;;;;;;;;;;;;;;;;;5030049;28;19933;-50
2022/11/08 13:22:39;;;;;;;;;;;;;;;;;;5029931;28;19925;-50
2022/11/08 13:25:07;;;;;;;;;;;;;;;;;;5030370;28;19925;-50
2022/11/08 13:27:36;;;;;;;;;;;;;;;;;;5030079;28;20019;-50
2022/11/08 13:30:05;;;;;;;;;;;;;;;;;;5029836;28;19929;-50
2022/11/08 13:32:41;;;;;;;;;;;;;;;;;;5029900;28;20291;-50
2022/11/08 13:35:09;;;;;;;;;;;;;;;;;;5030298;28;19929;-50
2022/11/08 13:37:53;;;;;;;;;;;;;;;;;;5030476;28;19930;-53
2022/11/08 13:40:34;;;;;;;;;;;;;;;;;;5030088;28;19975;-52
2022/11/08 13:43:22;;;;;;;;;;;;;;;;;;5036671;28;20263;-57
2022/11/08 13:45:49;;;;;;;;;;;;;;;;;;5051941;28;19928;-57
2022/11/08 13:48:39;;;;;;;;;;;;;;;;;;5053536;28;20408;-57
2022/11/08 13:51:22;;;;;;;;;;;;;;;;;;5037932;28;19925;-58
2022/11/08 13:53:51;;;;;;;;;;;;;;;;;;5052972;28;20012;-56
2022/11/08 13:56:19;;;;;;;;;;;;;;;;;;5053170;28;20309;-57
2022/11/08 13:58:47;;;;;;;;;;;;;;;;;;5053146;28;19928;-57
2022/11/08 14:01:29;;;;;;;;;;;;;;;;;;5053196;28;19968;-57
2022/11/08 14:03:56;;;;;;;;;;;;;;;;;;5052788;28;19924;-56
2022/11/08 14:06:26;;;;;;;;;;;;;;;;;;5053234;28;20335;-57
2022/11/08 14:09:00;;;;;;;;;;;;;;;;;;5053151;28;19932;-58
2022/11/08 14:11:35;;;;;;;;;;;;;;;;;;5053172;28;19925;-56
2022/11/08 14:14:15;;;;;;;;;;;;;;;;;;5052805;28;19951;-57
2022/11/08 14:16:46;;;;;;;;;;;;;;;;;;5053255;28;20459;-58
2022/11/08 14:19:21;;;;;;;;;;;;;;;;;;5052625;28;19924;-55
2022/11/08 14:21:49;;;;;;;;;;;;;;;;;;5052806;28;19928;-55
2022/11/08 14:24:17;;;;;;;;;;;;;;;;;;5052823;28;20368;-59
2022/11/08 14:26:45;;;;;;;;;;;;;;;;;;5052941;28;19983;-66
2022/11/08 14:29:16;;;;;;;;;;;;;;;;;;5052513;28;19932;-59
2022/11/08 14:31:43;;;;;;;;;;;;;;;;;;5052245;28;20406;-56
2022/11/08 14:34:25;;;;;;;;;;;;;;;;;;5052851;28;19932;-57
2022/11/08 14:36:51;;;;;;;;;;;;;;;;;;5052626;28;19925;-55
2022/11/08 14:39:18;;;;;;;;;;;;;;;;;;5052103;28;19929;-61
2022/11/08 14:41:46;;;;;;;;;;;;;;;;;;5051761;28;19932;-62
2022/11/08 14:44:14;;;;;;;;;;;;;;;;;;5052383;28;19951;-56
2022/11/08 14:46:42;;;;;;;;;;;;;;;;;;5052367;28;20412;-58
2022/11/08 14:49:10;;;;;;;;;;;;;;;;;;5052305;28;19939;-59
2022/11/08 14:51:37;;;;;;;;;;;;;;;;;;5052358;28;19948;-54
2022/11/08 14:54:04;;;;;;;;;;;;;;;;;;5052097;28;19925;-63
2022/11/08 14:56:36;;;;;;;;;;;;;;;;;;5052090;28;20396;-59
2022/11/08 14:59:05;;;;;;;;;;;;;;;;;;5052025;28;19940;-59
2022/11/08 15:01:32;;;;;;;;;;;;;;;;;;5052331;28;19928;-58
2022/11/08 15:04:01;;;;;;;;;;;;;;;;;;5051870;28;19929;-59
2022/11/08 15:06:32;;;;;;;;;;;;;;;;;;5052140;28;20138;-56
2022/11/08 15:09:00;;;;;;;;;;;;;;;;;;5051618;28;20012;-58
2022/11/08 15:11:28;;;;;;;;;;;;;;;;;;5051687;28;19925;-58
2022/11/08 15:13:57;;;;;;;;;;;;;;;;;;5052071;28;20335;-56
2022/11/08 15:16:26;;;;;;;;;;;;;;;;;;5050919;28;20219;-59
2022/11/08 15:18:52;;;;;;;;;;;;;;;;;;5051842;28;19932;-56
2022/11/08 15:21:28;;;;;;;;;;;;;;;;;;5051730;28;20306;-59
2022/11/08 15:24:04;;;;;;;;;;;;;;;;;;5051585;28;19924;-59
2022/11/08 15:26:31;;;;;;;;;;;;;;;;;;5051512;28;19924;-59
2022/11/08 15:28:59;;;;;;;;;;;;;;;;;;5051417;28;19928;-59
2022/11/08 15:31:27;;;;;;;;;;;;;;;;;;5051358;28;19924;-56
2022/11/08 15:33:54;;;;;;;;;;;;;;;;;;5051979;28;20016;-58
2022/11/08 15:36:24;;;;;;;;;;;;;;;;;;5055967;28;19932;-54
2022/11/08 15:38:52;;;;;;;;;;;;;;;;;;5055200;28;19924;-54
2022/11/08 15:41:28;;;;;;;;;;;;;;;;;;5054656;28;19929;-54
2022/11/08 15:44:05;;;;;;;;;;;;;;;;;;5055625;28;19925;-55
2022/11/08 15:46:35;;;;;;;;;;;;;;;;;;5054536;28;19932;-51
2022/11/08 15:49:02;;;;;;;;;;;;;;;;;;5054604;28;19925;-53
2022/11/08 15:51:29;;;;;;;;;;;;;;;;;;5054503;28;20005;-53
2022/11/08 15:53:57;;;;;;;;;;;;;;;;;;5039683;28;20381;-54
2022/11/08 15:56:23;;;;;;;;;;;;;;;;;;5035839;28;20282;-52
2022/11/08 15:58:50;;;;;;;;;;;;;;;;;;5035330;28;19951;-51
2022/11/08 16:01:18;;;;;;;;;;;;;;;;;;5036780;28;19952;-50
2022/11/08 16:03:45;;;;;;;;;;;;;;;;;;5042254;28;20008;-55
2022/11/08 16:06:12;;;;;;;;;;;;;;;;;;5056338;28;19929;-53
2022/11/08 16:08:39;;;;;;;;;;;;;;;;;;5054352;28;19928;-53
2022/11/08 16:11:10;;;;;;;;;;;;;;;;;;5055107;28;19932;-53
2022/11/08 16:13:38;;;;;;;;;;;;;;;;;;5055761;28;19960;-51
2022/11/08 16:16:10;;;;;;;;;;;;;;;;;;5055345;28;19967;-54
2022/11/08 16:18:36;;;;;;;;;;;;;;;;;;5072131;22;19928;-77
2022/11/08 16:21:03;;;;;;;;;;;;;;;;;;5070027;28;20486;-77
2022/11/08 16:23:30;;;;;;;;;;;;;;;;;;5060021;28;19975;-79
2022/11/08 16:25:56;;;;;;;;;;;;;;;;;;5058493;28;19967;-78
2022/11/08 16:28:27;;;;;;;;;;;;;;;;;;5058218;28;19959;-79
2022/11/08 16:30:53;;;;;;;;;;;;;;;;;;5057637;28;19924;-79
2022/11/08 16:33:21;;;;;;;;;;;;;;;;;;5059272;28;19925;-78
2022/11/08 16:35:48;;;;;;;;;;;;;;;;;;5060714;28;19925;-79
2022/11/08 16:38:15;;;;;;;;;;;;;;;;;;5069717;28;19955;-78
2022/11/08 16:40:42;;;;;;;;;;;;;;;;;;5082027;28;19924;-78
2022/11/08 16:43:11;;;;;;;;;;;;;;;;;;5066198;28;19936;-78
2022/11/08 16:45:39;;;;;;;;;;;;;;;;;;5061314;28;19925;-78
2022/11/08 16:48:06;;;;;;;;;;;;;;;;;;5062174;28;20407;-78
2022/11/08 16:50:33;;;;;;;;;;;;;;;;;;5058384;28;19967;-78
2022/11/08 16:52:59;;;;;;;;;;;;;;;;;;5061535;28;19993;-80
2022/11/08 16:55:28;;;;;;;;;;;;;;;;;;5073456;28;19924;-77
2022/11/08 16:57:55;;;;;;;;;;;;;;;;;;5080839;28;20000;-79
2022/11/08 17:00:21;;;;;;;;;;;;;;;;;;5083185;28;19960;-76
2022/11/08 17:02:50;;;;;;;;;;;;;;;;;;5082914;28;19928;-78
2022/11/08 17:05:18;;;;;;;;;;;;;;;;;;5084778;28;19931;-79
2022/11/08 17:07:49;;;;;;;;;;;;;;;;;;5063702;28;19928;-79
2022/11/08 17:10:18;;;;;;;;;;;;;;;;;;5054918;28;19931;-76
2022/11/08 17:12:45;;;;;;;;;;;;;;;;;;5053273;28;19929;-79
2022/11/08 17:15:12;;;;;;;;;;;;;;;;;;5058218;28;19932;-77
2022/11/08 17:17:41;;;;;;;;;;;;;;;;;;5057260;28;19925;-77
2022/11/08 17:20:12;;;;;;;;;;;;;;;;;;5062088;28;19940;-77